LIPS

Istrana Airport

Istrana, Italy
TAF LIPS 210800Z 2109/2118 03006KT 9999 SCT025 SCT070 TEMPO 2109/2118 7000 RA PROB40 TEMPO 2109/2115 5000 TSRA FEW020CB SCT030
Issued Valid From Valid To
Jul-21 @ 08:00 UTC
(2 hours ago)
Jul-21 @ 09:00 UTC
(49 minutes ago)
Jul-21 @ 18:00 UTC
(in 8 hours)
Jul-21 @ 09:00 to Jul-21 @ 18:00
TAF LIPS 210800Z 2109/2118 03006KT 9999 SCT025 SCT070
Wind Visibility Clouds
30° at 6 knots 10,000+ meters
  • Scattered at 2,500' AGL
  • Scattered at 7,000' AGL
Temporary  (Probability 40%) Jul-21 @ 09:00 to Jul-21 @ 15:00
PROB40 TEMPO 2109/2115 5000 TSRA FEW020CB SCT030
Visibility Clouds Conditions
5,005 meters
  • Few at 2,000' AGL
  • Scattered at 3,000' AGL
  • Thunderstorm
  • Rain
Temporary Jul-21 @ 09:00 to Jul-21 @ 18:00
TEMPO 2109/2118 7000 RA
Visibility Conditions
7,001 meters
  • Rain
TAF LIPS 210800Z 2109/2118 03006KT 9999 SCT025 SCT070 TEMPO 2109/2118 7000 RA PROB40 TEMPO 2109/2115 5000 TSRA FEW020CB SCT030
Issued Jul-21 @ 08:00 UTC
(2 hours ago)
Valid From Jul-21 @ 09:00 UTC
(49 minutes ago)
Valid To Jul-21 @ 18:00 UTC
(in 8 hours)
Jul-21 @ 09:00 - Jul-21 @ 18:00
Wind Visibility
30° at 6 knots 10,000+ meters
Clouds
  • Scattered at 2,500' AGL
  • Scattered at 7,000' AGL
Probability 40% Temporary Jul-21 @ 09:00 - Jul-21 @ 15:00
Clouds
  • Few at 2,000' AGL
  • Scattered at 3,000' AGL
Conditions
  • Thunderstorm
  • Rain
Temporary Jul-21 @ 09:00 - Jul-21 @ 18:00
Conditions
  • Rain